Flight Track Log - Related Links

Times and Time Zones

All times are in EDT time to prevent confusion due to time zone crossing. See the SWA2624 flight status page for this flight to view local times or setup timezone preferences in your user account.

Time Position Orientation Groundspeed Altitude Reporting Facility
EDT Latitude Longitude Course Direction KTS MPH feet Rate Location/Type
Mon 11:29:11 PM 35.0417 -106.5928 121° Southeast 156 180 5,900  Level Albuquerque Center
Mon 11:29:52 PM 35.0281 -106.5647 121° Southeast 182 209 7,000 2,091 Climbing Albuquerque Center
Mon 11:30:17 PM 35.0081 -106.5833 217° Southwest 189 217 8,200 2,164 Climbing Albuquerque Center
Mon 11:30:53 PM 35.0158 -106.6125 288° West 215 247 9,200 2,265 Climbing Albuquerque Center
Mon 11:31:55 PM 35.0411 -106.6981 290° West 249 287 11,900 3,268 Climbing Albuquerque Center
Mon 11:32:56 PM 35.0736 -106.7997 291° West 313 360 15,900 4,328 Climbing Albuquerque Center
Mon 11:33:57 PM 35.1125 -106.9286 290° West 346 398 20,700 4,000 Climbing Albuquerque Center
Mon 11:34:59 PM 35.1478 -107.0425 291° West 372 428 24,100 3,317 Climbing Albuquerque Center
Mon 11:36:00 PM 35.1903 -107.1833 290° West 398 458 27,500 2,852 Climbing Albuquerque Center
Mon 11:37:01 PM 35.2175 -107.3075 285° West 420 483 29,900 2,195 Climbing Albuquerque Center
Mon 11:38:03 PM 35.2344 -107.4533 278° West 430 495 32,000 1,659 Climbing Albuquerque Center
Mon 11:39:04 PM 35.2550 -107.6297 278° West 448 516 33,300 1,869 Climbing Albuquerque Center
Mon 11:40:05 PM 35.2644 -107.7803 274° West 457 526 35,800 2,852 Climbing Albuquerque Center
Mon 11:41:06 PM 35.2789 -107.9481 276° West 447 514 39,100 2,049 Climbing Albuquerque Center
Mon 11:42:08 PM 35.2919 -108.0861 277° West 433 498 40,000 439 Climbing Albuquerque Center
Mon 11:43:09 PM 35.3044 -108.2242 276° West 428 493 40,000  Level Albuquerque Center
Mon 11:44:10 PM 35.3164 -108.3861 275° West 426 490 40,000  Level Albuquerque Center
Mon 11:45:11 PM 35.3269 -108.5233 275° West 423 487 40,000  Level Albuquerque Center
Mon 11:46:12 PM 35.3389 -108.6594 276° West 421 484 40,000  Level Albuquerque Center
Mon 11:47:14 PM 35.3517 -108.8167 276° West 416 479 40,000  Level Albuquerque Center
Mon 11:48:15 PM 35.3617 -108.9539 275° West 418 481 40,000  Level Albuquerque Center
Mon 11:49:16 PM 35.3733 -109.0903 276° West 419 482 40,000  Level Albuquerque Center
Mon 11:50:17 PM 35.3844 -109.2478 275° West 417 480 40,000  Level Albuquerque Center
Mon 11:51:18 PM 35.3953 -109.3864 276° West 420 483 40,000  Level Albuquerque Center
Mon 11:52:19 PM 35.4061 -109.5461 275° West 421 484 40,000  Level Albuquerque Center
Mon 11:53:21 PM 35.4153 -109.6853 275° West 424 488 40,000  Level Albuquerque Center
Mon 11:54:22 PM 35.4239 -109.8222 274° West 423 487 40,000  Level Albuquerque Center
Mon 11:55:23 PM 35.4347 -109.9814 275° West 421 484 40,000  Level Albuquerque Center
Mon 11:56:24 PM 35.4419 -110.1206 274° West 424 488 40,000  Level Albuquerque Center
Mon 11:57:25 PM 35.4508 -110.2594 275° West 426 490 40,000 -492 Level Albuquerque Center
Mon 11:58:26 PM 35.4611 -110.4222 274° West 429 494 39,000 -984 Descending Albuquerque Center
Mon 11:59:27 PM 35.4700 -110.5622 274° West 429 494 38,000 -934 Descending Albuquerque Center
Tue 12:00:28 AM 35.4786 -110.7028 274° West 431 496 37,100 -934 Descending Albuquerque Center
Tue 12:01:29 AM 35.4900 -110.8692 275° West 436 502 36,100 -984 Descending Albuquerque Center
Tue 12:02:30 AM 35.4978 -111.0122 274° West 438 504 35,100 -984 Descending Albuquerque Center
Tue 12:03:31 AM 35.5089 -111.1819 275° West 443 510 34,100 -984 Descending Albuquerque Center
Tue 12:04:32 AM 35.5172 -111.3267 274° West 445 512 33,100 -1,721 Descending Albuquerque Center
Tue 12:05:33 AM 35.5250 -111.4600 274° West 452 520 30,600 -1,525 Descending Albuquerque Center
Tue 12:06:34 AM 35.5356 -111.6383 274° West 444 511 30,000 -295 Descending Albuquerque Center
Tue 12:07:35 AM 35.5428 -111.7856 273° West 436 502 30,000  Level Albuquerque Center
Tue 12:08:36 AM 35.5508 -111.9344 274° West 439 505 30,000  Level Albuquerque Center
Tue 12:09:37 AM 35.5592 -112.0850 274° West 443 510 30,000  Level Albuquerque Center
Tue 12:10:28 AM 35.5656 -112.2050 274° West 443 510 30,000  Level Los Angeles Center
Tue 12:11:32 AM 35.5731 -112.3547 274° West 443 510 30,000  Level Los Angeles Center
Tue 12:12:31 AM 35.5817 -112.5317 273° West 439 505 30,000  Level Los Angeles Center
Tue 12:13:33 AM 35.5872 -112.6650 273° West 435 501 30,000  Level Los Angeles Center
Tue 12:14:34 AM 35.5950 -112.8114 274° West 431 496 30,000  Level Los Angeles Center
Tue 12:15:36 AM 35.6019 -112.9772 273° West 441 507 30,000  Level Los Angeles Center
Tue 12:16:37 AM 35.6075 -113.1258 273° West 437 503 30,000  Level Los Angeles Center
Tue 12:17:39 AM 35.6142 -113.2733 273° West 434 499 30,000 -732 Level Los Angeles Center
Tue 12:18:40 AM 35.6206 -113.4386 273° West 435 501 28,500 -2,066 Descending Los Angeles Center
Tue 12:19:41 AM 35.6286 -113.5808 274° West 427 491 25,800 -2,634 Descending Los Angeles Center
Tue 12:20:43 AM 35.6492 -113.7156 281° West 409 471 23,100 -2,634 Descending Los Angeles Center
Tue 12:21:44 AM 35.6686 -113.8453 280° West 394 453 20,400 -2,016 Descending Los Angeles Center
Tue 12:22:45 AM 35.6847 -113.9678 279° West 371 427 19,000 -1,707 Descending Los Angeles Center
Tue 12:23:47 AM 35.7011 -114.0861 280° West 355 409 16,900 -2,321 Descending Los Angeles Center
Tue 12:24:31 AM 35.7178 -114.1881 281° West 343 395 14,900 -2,459 Descending Los Angeles Center
Tue 12:24:48 AM 35.7192 -114.2150 274° West 341 392 14,400 -2,082 Descending Los Angeles Center
Tue 12:25:20 AM 35.7311 -114.2844 282° West 338 389 13,200 -1,574 Descending Los Angeles Center
Tue 12:25:49 AM 35.7428 -114.3225 291° West 328 377 12,800 -875 Descending Los Angeles Center
Tue 12:26:08 AM 35.7689 -114.3564 314° West 338 389 12,500 -774 Descending Los Angeles Center
Tue 12:26:51 AM 35.8022 -114.4142 305° West 340 391 12,000 -822 Descending Los Angeles Center
Tue 12:27:21 AM 35.8381 -114.4711 308° West 338 389 11,500 -787 Descending Los Angeles Center
Tue 12:27:52 AM 35.8569 -114.5081 302° West 338 389 11,200 -806 Descending Los Angeles Center
Tue 12:28:28 AM 35.8969 -114.5708 308° West 337 388 10,600 -787 Descending Los Angeles Center
Tue 12:28:53 AM 35.9128 -114.5986 305° West 334 384 10,400 -1,273 Descending Los Angeles Center
Tue 12:29:34 AM 35.9556 -114.6683 307° West 303 349 9,200 -1,475 Descending Los Angeles Center
Tue 12:29:54 AM 35.9614 -114.6792 304° West 301 346 8,900 -1,102 Descending Los Angeles Center
Tue 12:30:23 AM 35.9911 -114.7308 305° West 293 337 8,300 -1,065 Descending Los Angeles Center
Tue 12:30:56 AM 36.0181 -114.7717 309° West 284 327 7,800 -885 Descending Los Angeles Center
Tue 12:31:24 AM 36.0347 -114.8014 305° West 269 310 7,400 -885 Descending Los Angeles Center
Tue 12:31:57 AM 36.0592 -114.8408 307° West 265 305 6,900 -1,000 Descending Los Angeles Center
Tue 12:32:18 AM 36.0700 -114.8642 300° West 237 273 6,500 -1,180 Descending Los Angeles Center
Tue 12:32:58 AM 36.0742 -114.9097 276° West 237 273 5,700 -1,180 Descending Los Angeles Center
Tue 12:33:19 AM 36.0758 -114.9394 274° West 202 232 5,300 -1,258 Descending Los Angeles Center
Tue 12:34:00 AM 36.0733 -114.9736 265° West 204 235 4,400 -947 Descending Los Angeles Center
Tue 12:35:13 AM 36.0744 -115.0303 271° West 183 211 3,500 -711 Descending Los Angeles Center
Tue 12:36:15 AM 36.0742 -115.0800 270° West 147 169 2,800 -634 Descending Los Angeles Center
Tue 12:37:16 AM 36.0742 -115.1189 270° West 126 145 2,200 -590 Descending Los Angeles Center
Tue 12:39:00 AM 36.0667 -115.1500 270° West  Level FlightAware Approximate

Login

Don't have an account? Register now (free) for customized features, flight alerts, and more!